createdAt,value
2023-02-19T00:03:20.327Z,92.52
2023-02-19T00:08:39.362Z,93.59
2023-02-19T00:13:58.959Z,94
2023-02-19T00:19:18.617Z,94.24
2023-02-19T00:24:37.694Z,94.44
2023-02-19T00:29:57.120Z,94
2023-02-19T00:35:16.523Z,94.42
2023-02-19T00:41:50.609Z,94.78
2023-02-19T00:45:56.422Z,95.07
2023-02-19T00:51:14.204Z,95.2
2023-02-19T00:56:33.209Z,95.39
2023-02-19T01:01:51.541Z,95.13
2023-02-19T01:07:10.892Z,94.68
2023-02-19T01:12:30.343Z,94.33
2023-02-19T01:17:49.688Z,94.03
2023-02-19T01:23:08.614Z,93.7
2023-02-19T01:28:27.721Z,93.36
2023-02-19T01:33:46.526Z,93.46
2023-02-19T01:39:05.772Z,92.75
2023-02-19T01:44:24.482Z,92.44
2023-02-19T01:49:44.311Z,92.1
2023-02-19T01:55:04.033Z,91.9
2023-02-19T02:00:22.970Z,91.72
2023-02-19T02:05:42.981Z,91.94
2023-02-19T02:11:02.608Z,92.25
2023-02-19T02:16:21.959Z,92.28
2023-02-19T02:21:41.433Z,92.4
2023-02-19T02:27:00.230Z,92.53
2023-02-19T02:32:19.690Z,92.48
2023-02-19T02:37:39.154Z,92.4
2023-02-19T02:42:58.853Z,92.2
2023-02-19T02:48:17.808Z,91.86
2023-02-19T02:53:37.112Z,92.07
2023-02-19T02:58:56.060Z,91.74
2023-02-19T03:04:15.770Z,91.7
2023-02-19T03:09:34.539Z,91.79
2023-02-19T03:14:53.965Z,91.78
2023-02-19T03:20:12.916Z,91.94
2023-02-19T03:20:37.472Z,90.01
2023-02-19T03:25:56.981Z,92.12
2023-02-19T03:31:16.639Z,92.32
2023-02-19T03:36:36.036Z,92.42
2023-02-19T03:41:55.635Z,92.39
2023-02-19T03:47:14.619Z,92.12
2023-02-19T03:52:33.558Z,92.03
2023-02-19T03:57:52.948Z,91.99
2023-02-19T04:03:12.333Z,91.72
2023-02-19T04:08:31.241Z,91.78
2023-02-19T04:13:50.300Z,91.53
2023-02-19T04:19:10.089Z,91.11
2023-02-19T04:24:30.140Z,91.11
2023-02-19T04:29:50.562Z,90.71
2023-02-19T04:35:09.484Z,90.36
2023-02-19T04:40:28.818Z,89.94
2023-02-19T04:45:47.317Z,89.52
2023-02-19T04:51:06.542Z,89.39
2023-02-19T04:56:25.918Z,89.32
2023-02-19T05:01:44.733Z,89.23
2023-02-19T05:07:04.002Z,89.45
2023-02-19T05:12:23.442Z,91
2023-02-19T05:17:42.227Z,91.76
2023-02-19T05:23:01.803Z,90.85
2023-02-19T05:28:20.910Z,90.44
2023-02-19T05:33:39.878Z,89.9
2023-02-19T05:38:58.957Z,89.69
2023-02-19T05:44:18.549Z,89.41
2023-02-19T05:49:37.546Z,89.51
2023-02-19T05:54:56.618Z,90.38
2023-02-19T06:00:15.396Z,91.71
2023-02-19T06:05:34.843Z,92.59
2023-02-19T06:11:02.045Z,93.17
2023-02-19T06:16:13.544Z,93.41
2023-02-19T06:21:32.382Z,93.33
2023-02-19T06:26:51.702Z,93.42
2023-02-19T06:32:10.660Z,92.87
2023-02-19T06:37:30.174Z,92.58
2023-02-19T06:42:49.854Z,92.05
2023-02-19T06:48:09.539Z,91.81
2023-02-19T06:53:28.879Z,91.35
2023-02-19T06:58:48.119Z,91.32
2023-02-19T07:04:07.390Z,91.92
2023-02-19T07:09:26.977Z,93.59
2023-02-19T07:14:45.476Z,94.72
2023-02-19T07:20:04.945Z,95.17
2023-02-19T07:25:24.046Z,95.26
2023-02-19T07:30:43.559Z,95.27
2023-02-19T07:36:03.157Z,95.07
2023-02-19T07:41:22.869Z,94.25
2023-02-19T07:46:42.354Z,93.68
2023-02-19T07:52:02.051Z,92.3
2023-02-19T07:57:21.324Z,92.02
2023-02-19T08:02:40.840Z,91.99
2023-02-19T08:08:00.516Z,91.53
2023-02-19T08:13:20.278Z,91.07
2023-02-19T08:18:39.313Z,90.8
2023-02-19T08:23:58.588Z,90.64
2023-02-19T08:29:18.103Z,90.58
2023-02-19T08:34:37.759Z,90.59
2023-02-19T08:39:57.378Z,89.03
2023-02-19T08:45:16.334Z,88.73
2023-02-19T08:50:36.020Z,88.48
2023-02-19T08:55:55.293Z,87.95
2023-02-19T09:01:14.799Z,88.23
2023-02-19T09:06:34.211Z,87.56
2023-02-19T09:11:52.484Z,87.42
2023-02-19T09:17:11.503Z,87.74
2023-02-19T09:22:31.945Z,87.54
2023-02-19T09:27:50.406Z,87.15
2023-02-19T09:33:09.922Z,87.56
2023-02-19T09:38:30.088Z,87.67
2023-02-19T09:43:49.147Z,87.36
2023-02-19T09:49:08.367Z,86.45
2023-02-19T09:54:27.841Z,86.09
2023-02-19T09:59:46.720Z,85.92
2023-02-19T10:05:06.438Z,86.39
2023-02-19T10:10:25.832Z,86.31
2023-02-19T10:15:45.183Z,87.27
2023-02-19T10:21:04.661Z,88.18
2023-02-19T10:26:24.631Z,87.46
2023-02-19T10:31:43.697Z,87.17
2023-02-19T10:37:01.824Z,87.01
2023-02-19T10:42:20.802Z,88.49
2023-02-19T10:47:40.054Z,86.98
2023-02-19T10:52:59.691Z,86.21
2023-02-19T10:58:18.568Z,85.45
2023-02-19T11:03:38.269Z,84.66
2023-02-19T11:08:57.967Z,83.45
2023-02-19T11:14:17.478Z,83.43
2023-02-19T11:19:36.425Z,83
2023-02-19T11:24:57.877Z,83.26
2023-02-19T11:30:14.541Z,80.83
2023-02-19T11:35:34.251Z,80.21
2023-02-19T11:40:53.727Z,80.21
2023-02-19T11:46:13.362Z,80.87
2023-02-19T11:51:32.106Z,81.93
2023-02-19T11:56:51.333Z,81.96
2023-02-19T12:02:10.964Z,82.55
2023-02-19T12:07:29.621Z,81.76
2023-02-19T12:12:48.993Z,81.43
2023-02-19T12:18:07.760Z,80.44
2023-02-19T12:23:26.645Z,80.22
2023-02-19T12:28:46.102Z,77.8
2023-02-19T12:34:04.653Z,77.76
2023-02-19T12:39:24.440Z,78.33
2023-02-19T12:44:44.015Z,78.14
2023-02-19T12:50:02.960Z,79.14
2023-02-19T12:55:21.687Z,79.58
2023-02-19T13:00:40.568Z,80.67
2023-02-19T13:06:00.202Z,82.89
2023-02-19T13:11:19.115Z,88.27
2023-02-19T13:16:38.485Z,89.66
2023-02-19T13:21:56.920Z,92.58
2023-02-19T13:27:16.091Z,91.77
2023-02-19T13:32:34.955Z,91.92
2023-02-19T13:37:54.578Z,91.3
2023-02-19T13:43:14.024Z,90.71
2023-02-19T13:48:33.690Z,90.77
2023-02-19T13:53:52.796Z,92.32
2023-02-19T13:59:11.950Z,93.88
2023-02-19T14:04:30.931Z,95.48
2023-02-19T14:09:49.854Z,95.86
2023-02-19T14:15:09.116Z,96.53
2023-02-19T14:20:28.114Z,95.2
2023-02-19T14:25:47.841Z,94.67
2023-02-19T14:31:06.921Z,90.84
2023-02-19T14:36:25.857Z,89.93
2023-02-19T14:41:45.591Z,89.89
2023-02-19T14:47:05.016Z,89.78
2023-02-19T14:52:24.640Z,88.85
2023-02-19T14:57:43.927Z,86.41
2023-02-19T15:03:03.656Z,87.78
2023-02-19T15:08:21.931Z,87.37
2023-02-19T15:13:41.554Z,87.12
2023-02-19T15:19:01.125Z,86.83
2023-02-19T15:24:20.059Z,87.33
2023-02-19T15:29:39.124Z,87.99
2023-02-19T15:34:58.817Z,87.22
2023-02-19T15:40:17.877Z,88.06
2023-02-19T15:45:36.711Z,87.2
2023-02-19T15:50:56.261Z,87.38
2023-02-19T15:56:15.616Z,87.32
2023-02-19T16:01:34.637Z,87.52
2023-02-19T16:06:54.188Z,87.31
2023-02-19T16:12:13.260Z,87.22
2023-02-19T16:17:32.154Z,86.81
2023-02-19T16:22:51.729Z,86.76
2023-02-19T16:28:11.230Z,87.03
2023-02-19T16:33:30.406Z,88.39
2023-02-19T16:38:49.569Z,88.81
2023-02-19T16:44:08.719Z,88.59
2023-02-19T16:49:27.914Z,88.46
2023-02-19T17:00:06.369Z,88.09
2023-02-19T17:05:25.917Z,87.75
2023-02-19T17:10:45.054Z,87.6
2023-02-19T17:16:04.334Z,87.57
2023-02-19T17:21:23.857Z,87.28
2023-02-19T17:26:43.625Z,87.74
2023-02-19T17:32:03.056Z,89.58
2023-02-19T17:37:22.312Z,90.76
2023-02-19T17:42:41.235Z,91.47
2023-02-19T17:48:00.640Z,91.38
2023-02-19T17:53:19.726Z,91.26
2023-02-19T17:58:38.569Z,90.06
2023-02-19T18:03:57.353Z,92.07
2023-02-19T18:09:17.527Z,92.37
2023-02-19T18:14:36.227Z,92.59
2023-02-19T18:19:55.537Z,92.37
2023-02-19T18:25:14.616Z,92.96
2023-02-19T18:30:33.734Z,93.08
2023-02-19T18:35:52.630Z,92.36
2023-02-19T18:41:11.897Z,92.78
2023-02-19T18:46:32.310Z,93.29
2023-02-19T18:51:50.636Z,93.84
2023-02-19T18:57:10.802Z,94.85
2023-02-19T19:02:33.782Z,95.04
2023-02-19T19:07:48.950Z,94.5
2023-02-19T19:13:08.181Z,93.61
2023-02-19T19:18:28.656Z,93.99
2023-02-19T19:23:47.077Z,94.17
2023-02-19T19:29:06.488Z,94.15
2023-02-19T19:34:25.568Z,93.14
2023-02-19T19:39:44.966Z,92.44
2023-02-19T19:45:03.844Z,92.18
2023-02-19T19:50:22.926Z,91.91
2023-02-19T19:55:42.559Z,91.94
2023-02-19T20:01:01.873Z,92.25
2023-02-19T20:06:20.598Z,92.55
2023-02-19T20:11:39.464Z,92.05
2023-02-19T20:16:58.645Z,91.49
2023-02-19T20:22:17.958Z,91.89
2023-02-19T20:27:37.583Z,92.32
2023-02-19T20:32:57.262Z,92.19
2023-02-19T20:38:16.730Z,92.14
2023-02-19T20:43:35.937Z,91.83
2023-02-19T20:48:55.084Z,92.25
2023-02-19T20:54:14.580Z,92.24
2023-02-19T20:59:33.902Z,92.32
2023-02-19T21:04:53.404Z,92.1
2023-02-19T21:05:17.739Z,90.14
2023-02-19T21:10:37.416Z,92.03
2023-02-19T21:15:56.339Z,92.11
2023-02-19T21:21:15.707Z,92.06
2023-02-19T21:26:34.974Z,92.22
2023-02-19T21:31:53.949Z,92.64
2023-02-19T21:37:13.368Z,92.95
2023-02-19T21:42:32.151Z,93.24
2023-02-19T21:47:51.881Z,93.44
2023-02-19T21:53:11.041Z,93.52
2023-02-19T21:58:29.824Z,93.32
2023-02-19T22:03:49.516Z,92.98
2023-02-19T22:09:08.266Z,93.29
2023-02-19T22:14:28.018Z,93.43
2023-02-19T22:19:47.816Z,93.38
2023-02-19T22:25:07.353Z,93.21
2023-02-19T22:30:26.435Z,93.29
2023-02-19T22:35:45.860Z,93.43
2023-02-19T22:41:04.720Z,93.46
2023-02-19T22:46:23.985Z,92.96
2023-02-19T22:51:43.169Z,92.77
2023-02-19T22:57:03.000Z,92.45
2023-02-19T23:02:21.098Z,92.44
2023-02-19T23:07:40.358Z,92.33
2023-02-19T23:12:59.116Z,92.29
2023-02-19T23:18:18.460Z,92.25
2023-02-19T23:23:37.639Z,92.16
2023-02-19T23:28:56.799Z,92.53
2023-02-19T23:34:16.592Z,92.54
2023-02-19T23:39:35.469Z,92.34
2023-02-19T23:44:54.177Z,92.42
2023-02-19T23:50:13.773Z,92.6
2023-02-19T23:55:33.260Z,92.84
